METAR de aeropuertos de Murcia y cercanos

 

LEMI - Murcia/Corvera
Actualización: 20/11/2019 10:00
Despejado
Despejado
 Viento del varies
Viento: varies 4 km/h
Temperatura: 12°C
Rocío: 7°C
Humedad: 72%
Barómetro: 1013 hPa
Resumen: Despejado
Visibilidad: greater than 10 km
2019/11/20 09:00 LEMI 200900Z VRB02KT CAVOK 12/07 Q1013
LERI - Murcia/Alcantarilla
Actualización: 20/11/2019 10:00
Despejado
Despejado
 Viento del calm
Viento: Calma
Temperatura: 9°C
Rocío: 5°C
Humedad: 76%
Barómetro: 1014 hPa
Resumen: Despejado
Visibilidad: greater than 10 km
2019/11/20 09:00 LERI 200900Z 00000KT CAVOK 09/05 Q1014 NOSIG
LELC - Murcia/San Javier
Actualización: 20/11/2019 10:00
Despejado
Despejado
 Viento del O
Viento: O 7 km/h
Temperatura: 11°C
Rocío: 9°C
Humedad: 88%
Barómetro: 1013 hPa
Resumen: Despejado
Visibilidad: greater than 10 km
2019/11/20 09:00 LELC 200900Z 27004KT CAVOK 11/09 Q1013 NOSIG
 
LEAL - Alicante
Actualización: 20/11/2019 10:00
Few Clouds
Few Clouds
 Viento del OSO
Viento: OSO 6 km/h
Temperatura: 13°C
Rocío: 4°C
Humedad: 55%
Barómetro: 1013 hPa
Nubosidad: Few Clouds
Visibilidad: 10 km
Cloud details: Few Clouds 610 m
2019/11/20 09:00 LEAL 200900Z 25003KT 200V280 9999 FEW020 13/04 Q1013 NOSIG
LEAB - Albacete
Actualización: 20/11/2019 10:00
Despejado
Despejado
 Viento del SSE
Viento: SSE 6 km/h
Temperatura: 4°C
Rocío: 3°C
Humedad: 93%
Barómetro: 1013 hPa
Resumen: Despejado
Visibilidad: greater than 10 km
2019/11/20 09:00 LEAB 200900Z 16003KT CAVOK 04/03 Q1013 NOSIG
LEAM - Almería
Actualización: 20/11/2019 10:00
Few Clouds
Few Clouds
 Viento del NNO
Viento: NNO 15 km/h
Temperatura: 13°C
Rocío: 4°C
Humedad: 55%
Barómetro: 1013 hPa
Nubosidad: Few Clouds
Visibilidad: 10 km
Cloud details: Few Clouds 914 m
2019/11/20 09:00 LEAM 200900Z 33008KT 9999 FEW030 13/04 Q1013

La estación de MeteoMurcia.com, publica sus datos en los siguientes proyectos:

Weather Underground PWS IMURCIAP2 Meteoclimatic www.awekas.at

W3Counter
Web Analytics